Time;durP1;ratioP1;P1;durP2;ratioP2;P2;SDS_P1;SDS_P2;PMS_P1;PMS_P2;Temp;Humidity;BMP_temperature;BMP_pressure;BME280_temperature;BME280_humidity;BME280_pressure;Samples;Min_cycle;Max_cycle;Signal;HPM_P1;HPM_P2
2022/03/13 00:01:58;;;;;;;18.73;8.57;;;;;;;;;;5099854;28;20034;-82
2022/03/13 00:04:24;;;;;;;26.63;11.15;;;;;;;;;;5082845;28;20114;-83
2022/03/13 00:06:49;;;;;;;23.65;9.55;;;;;;;;;;5066192;28;20035;-83
2022/03/13 00:09:15;;;;;;;24.70;10.38;;;;;;;;;;5082451;28;20047;-83
2022/03/13 00:11:41;;;;;;;26.20;9.88;;;;;;;;;;5082816;28;20028;-82
2022/03/13 00:14:10;;;;;;;23.83;10.07;;;;;;;;;;5098710;28;20055;-83
2022/03/13 00:16:36;;;;;;;31.65;10.32;;;;;;;;;;5105326;28;20436;-83
2022/03/13 00:19:02;;;;;;;25.25;10.32;;;;;;;;;;5082829;28;20023;-83
2022/03/13 00:21:27;;;;;;;22.63;9.80;;;;;;;;;;5082701;28;20442;-83
2022/03/13 00:23:54;;;;;;;18.42;9.00;;;;;;;;;;5065649;28;20114;-83
2022/03/13 00:26:20;;;;;;;23.25;10.07;;;;;;;;;;5065892;28;20097;-83
2022/03/13 00:28:46;;;;;;;22.17;9.23;;;;;;;;;;5081863;28;20421;-83
2022/03/13 00:31:12;;;;;;;20.52;9.02;;;;;;;;;;5082283;28;20031;-83
2022/03/13 00:33:38;;;;;;;20.08;8.90;;;;;;;;;;5074498;28;20057;-82
2022/03/13 00:36:04;;;;;;;21.30;9.52;;;;;;;;;;5083358;28;20036;-83
2022/03/13 00:38:29;;;;;;;18.58;9.00;;;;;;;;;;5082779;28;20032;-83
2022/03/13 00:40:56;;;;;;;22.30;8.65;;;;;;;;;;5065574;28;20180;-82
2022/03/13 00:43:41;;;;;;;;;;;;;;;;;;;;;
2022/03/13 00:46:07;;;;;;;23.17;9.30;;;;;;;;;;5085507;28;20019;-83
2022/03/13 00:52:34;;;;;;;22.23;9.05;;;;;;;;;;5103883;28;20093;-83
2022/03/13 00:54:59;;;;;;;20.58;8.15;;;;;;;;;;5026804;28;20346;-83
2022/03/13 00:57:25;;;;;;;15.45;8.02;;;;;;;;;;5095505;28;20035;-82
2022/03/13 00:59:50;;;;;;;24.38;9.40;;;;;;;;;;5069213;28;20330;-82
2022/03/13 01:02:16;;;;;;;18.88;9.00;;;;;;;;;;5116840;28;20072;-83
2022/03/13 01:04:41;;;;;;;21.38;8.45;;;;;;;;;;5099540;28;20035;-83
2022/03/13 01:07:08;;;;;;;17.25;7.88;;;;;;;;;;5081696;28;20024;-82
2022/03/13 01:09:34;;;;;;;18.25;8.50;;;;;;;;;;5081844;28;20027;-83
2022/03/13 01:12:00;;;;;;;18.10;8.40;;;;;;;;;;5081811;28;20078;-82
2022/03/13 01:14:26;;;;;;;21.77;8.15;;;;;;;;;;5064673;28;20429;-83
2022/03/13 01:16:59;;;;;;;21.35;8.55;;;;;;;;;;5066225;28;20035;-83
2022/03/13 01:19:25;;;;;;;18.98;8.18;;;;;;;;;;5099760;28;20018;-82
2022/03/13 01:21:50;;;;;;;20.10;8.18;;;;;;;;;;5081215;28;20118;-82
2022/03/13 01:24:16;;;;;;;18.23;8.43;;;;;;;;;;5081416;28;20032;-82
2022/03/13 01:26:44;;;;;;;20.02;8.70;;;;;;;;;;5116571;28;20042;-83
2022/03/13 01:29:10;;;;;;;21.08;8.80;;;;;;;;;;5065384;28;20034;-83
2022/03/13 01:31:54;;;;;;;16.58;7.63;;;;;;;;;;5081247;28;20027;-83
2022/03/13 01:34:43;;;;;;;16.80;7.43;;;;;;;;;;5064564;28;20452;-83
2022/03/13 01:37:19;;;;;;;20.83;8.57;;;;;;;;;;5098722;28;20122;-82
2022/03/13 01:39:45;;;;;;;20.83;8.32;;;;;;;;;;5084355;28;20031;-83
2022/03/13 01:42:10;;;;;;;19.65;7.82;;;;;;;;;;5090148;28;20466;-83
2022/03/13 01:44:36;;;;;;;23.90;9.25;;;;;;;;;;5080974;28;20066;-83
2022/03/13 01:47:03;;;;;;;22.90;8.05;;;;;;;;;;5081129;28;20441;-82
2022/03/13 01:49:28;;;;;;;18.63;8.90;;;;;;;;;;5097874;28;20110;-83
2022/03/13 01:51:54;;;;;;;21.15;8.32;;;;;;;;;;5064205;28;20452;-83
2022/03/13 01:54:20;;;;;;;17.88;8.48;;;;;;;;;;5097989;28;20098;-84
2022/03/13 01:56:46;;;;;;;17.15;6.93;;;;;;;;;;5081025;28;20384;-83
2022/03/13 01:59:14;;;;;;;16.88;6.88;;;;;;;;;;5081126;28;20024;-82
2022/03/13 02:01:39;;;;;;;22.23;9.23;;;;;;;;;;5104077;28;20042;-83
2022/03/13 02:04:05;;;;;;;19.38;7.93;;;;;;;;;;5064499;28;20032;-83
2022/03/13 02:06:30;;;;;;;18.73;8.95;;;;;;;;;;5064133;28;20027;-84
2022/03/13 02:08:56;;;;;;;22.45;9.55;;;;;;;;;;5097398;28;20038;-83
2022/03/13 02:11:23;;;;;;;17.27;8.02;;;;;;;;;;5064274;28;20126;-83
2022/03/13 02:13:49;;;;;;;16.40;7.32;;;;;;;;;;5064013;28;20058;-83
2022/03/13 02:16:15;;;;;;;17.23;7.78;;;;;;;;;;5097327;28;20114;-83
2022/03/13 02:18:41;;;;;;;16.13;7.00;;;;;;;;;;5063805;28;20129;-83
2022/03/13 02:21:10;;;;;;;16.80;7.03;;;;;;;;;;5080481;28;20114;-83
2022/03/13 02:23:36;;;;;;;16.38;7.95;;;;;;;;;;5107486;28;20016;-83
2022/03/13 02:26:03;;;;;;;16.25;7.38;;;;;;;;;;5064479;28;20042;-84
2022/03/13 02:28:30;;;;;;;15.75;7.38;;;;;;;;;;5063452;28;20456;-83
2022/03/13 02:30:58;;;;;;;21.33;8.75;;;;;;;;;;5064048;28;20096;-83
2022/03/13 02:33:24;;;;;;;19.63;7.88;;;;;;;;;;5080712;28;20028;-82
2022/03/13 02:35:54;;;;;;;16.50;7.25;;;;;;;;;;5080036;28;20061;-82
2022/03/13 02:38:21;;;;;;;16.52;6.80;;;;;;;;;;5097186;28;20032;-82
2022/03/13 02:40:47;;;;;;;20.40;8.02;;;;;;;;;;5097817;28;20020;-83
2022/03/13 02:43:12;;;;;;;14.40;6.95;;;;;;;;;;5080740;28;20027;-83
2022/03/13 02:45:38;;;;;;;15.10;7.78;;;;;;;;;;5089376;28;20019;-83
2022/03/13 02:48:07;;;;;;;18.98;6.30;;;;;;;;;;5096948;28;20102;-85
2022/03/13 02:50:33;;;;;;;20.42;7.25;;;;;;;;;;5096594;28;20114;-83
2022/03/13 02:52:58;;;;;;;16.50;7.30;;;;;;;;;;5063039;28;20112;-83
2022/03/13 02:55:24;;;;;;;16.08;7.65;;;;;;;;;;5080018;28;20031;-83
2022/03/13 02:57:50;;;;;;;15.73;6.95;;;;;;;;;;5096610;28;20024;-83
2022/03/13 03:00:16;;;;;;;14.57;7.28;;;;;;;;;;5096572;28;20051;-83
2022/03/13 03:02:42;;;;;;;15.20;7.22;;;;;;;;;;5080947;28;20023;-83
2022/03/13 03:05:08;;;;;;;15.50;7.57;;;;;;;;;;5098166;28;20028;-84
2022/03/13 03:07:34;;;;;;;18.05;8.00;;;;;;;;;;5123272;28;20537;-83
2022/03/13 03:10:04;;;;;;;16.50;7.55;;;;;;;;;;5079519;28;20028;-83
2022/03/13 03:12:30;;;;;;;17.63;7.85;;;;;;;;;;5080066;28;20398;-83
2022/03/13 03:14:56;;;;;;;24.30;8.00;;;;;;;;;;5096143;28;20465;-83
2022/03/13 03:17:22;;;;;;;15.75;7.45;;;;;;;;;;5079488;28;20031;-83
2022/03/13 03:19:47;;;;;;;20.90;9.30;;;;;;;;;;5079674;28;20028;-84
2022/03/13 03:22:14;;;;;;;16.33;7.80;;;;;;;;;;5062720;28;20028;-83
2022/03/13 03:24:39;;;;;;;21.35;8.82;;;;;;;;;;5096865;28;20069;-84
2022/03/13 03:27:05;;;;;;;21.27;9.32;;;;;;;;;;5063333;28;20067;-83
2022/03/13 03:29:30;;;;;;;19.67;9.07;;;;;;;;;;5083777;28;20032;-83
2022/03/13 03:31:56;;;;;;;25.50;10.50;;;;;;;;;;5062968;28;20031;-85
2022/03/13 03:34:23;;;;;;;23.88;9.40;;;;;;;;;;5079690;28;20027;-83
2022/03/13 03:36:50;;;;;;;25.95;10.45;;;;;;;;;;5098843;28;20032;-84
2022/03/13 03:39:16;;;;;;;25.92;10.05;;;;;;;;;;5097621;28;20131;-84
2022/03/13 03:41:44;;;;;;;25.55;9.75;;;;;;;;;;5080085;28;20055;-84
2022/03/13 03:44:10;;;;;;;24.15;11.20;;;;;;;;;;5080083;28;20024;-84
2022/03/13 03:46:35;;;;;;;27.42;11.10;;;;;;;;;;5079541;28;20031;-83
2022/03/13 03:49:01;;;;;;;25.15;11.20;;;;;;;;;;5073842;28;20083;-83
2022/03/13 03:51:27;;;;;;;27.92;11.27;;;;;;;;;;5096607;28;20023;-83
2022/03/13 03:53:52;;;;;;;26.10;11.82;;;;;;;;;;5096695;28;20050;-85
2022/03/13 03:56:18;;;;;;;27.63;11.48;;;;;;;;;;5096268;28;20110;-84
2022/03/13 03:58:44;;;;;;;30.60;11.90;;;;;;;;;;5079962;28;20104;-84
2022/03/13 04:01:09;;;;;;;24.60;9.77;;;;;;;;;;5095907;28;20463;-84
2022/03/13 04:03:35;;;;;;;18.90;8.85;;;;;;;;;;5063134;28;20028;-84
2022/03/13 04:06:01;;;;;;;17.52;8.13;;;;;;;;;;5085768;28;20468;-83
2022/03/13 04:08:29;;;;;;;17.42;7.65;;;;;;;;;;5083090;28;20019;-84
2022/03/13 04:10:55;;;;;;;17.05;7.72;;;;;;;;;;5098076;28;20024;-84
2022/03/13 04:13:22;;;;;;;16.55;8.05;;;;;;;;;;5082668;28;20039;-83
2022/03/13 04:15:47;;;;;;;15.38;7.90;;;;;;;;;;5082775;28;20031;-84
2022/03/13 04:18:15;;;;;;;15.50;7.55;;;;;;;;;;5065949;28;20032;-84
2022/03/13 04:20:42;;;;;;;17.00;7.68;;;;;;;;;;5100737;28;20423;-84
2022/03/13 04:23:08;;;;;;;19.02;8.15;;;;;;;;;;5083059;28;20023;-84
2022/03/13 04:25:34;;;;;;;21.70;9.60;;;;;;;;;;5083622;28;20070;-84
2022/03/13 04:28:00;;;;;;;25.73;10.82;;;;;;;;;;5100444;28;20038;-83
2022/03/13 04:30:30;;;;;;;24.65;9.98;;;;;;;;;;5100624;28;20384;-83
2022/03/13 04:32:56;;;;;;;22.63;10.98;;;;;;;;;;5089535;28;20032;-84
2022/03/13 04:35:23;;;;;;;20.60;8.48;;;;;;;;;;5083216;28;20510;-84
2022/03/13 04:37:48;;;;;;;20.63;8.70;;;;;;;;;;5099314;28;20360;-84
2022/03/13 04:40:23;;;;;;;22.30;9.05;;;;;;;;;;5082450;28;20039;-84
2022/03/13 04:42:49;;;;;;;19.52;8.15;;;;;;;;;;5065946;28;20032;-84
2022/03/13 04:45:15;;;;;;;20.50;7.85;;;;;;;;;;5082560;28;20096;-84
2022/03/13 04:47:40;;;;;;;22.92;8.38;;;;;;;;;;5083287;28;20035;-84
2022/03/13 04:50:06;;;;;;;17.20;7.65;;;;;;;;;;5082183;28;20080;-84
2022/03/13 04:52:32;;;;;;;17.13;7.18;;;;;;;;;;5092044;28;20039;-83
2022/03/13 04:54:57;;;;;;;20.65;8.80;;;;;;;;;;5071135;28;20039;-85
2022/03/13 04:57:23;;;;;;;19.60;8.82;;;;;;;;;;5066360;28;20102;-85
2022/03/13 04:59:48;;;;;;;18.13;8.60;;;;;;;;;;5082298;28;20456;-84
2022/03/13 05:02:14;;;;;;;21.20;8.43;;;;;;;;;;5099816;28;20114;-85
2022/03/13 05:04:41;;;;;;;19.95;8.38;;;;;;;;;;5065764;28;20031;-84
2022/03/13 05:07:07;;;;;;;15.48;7.65;;;;;;;;;;5065810;28;20031;-84
2022/03/13 05:09:33;;;;;;;17.85;8.07;;;;;;;;;;5099808;28;20039;-84
2022/03/13 05:12:09;;;;;;;19.40;8.85;;;;;;;;;;5087111;28;20022;-83
2022/03/13 05:14:35;;;;;;;14.95;7.72;;;;;;;;;;5119846;28;20051;-84
2022/03/13 05:17:00;;;;;;;17.63;8.65;;;;;;;;;;5065456;28;20027;-84
2022/03/13 05:19:26;;;;;;;19.00;8.45;;;;;;;;;;5116896;28;20476;-83
2022/03/13 05:21:51;;;;;;;17.10;8.40;;;;;;;;;;5098898;28;20032;-84
2022/03/13 05:24:17;;;;;;;17.65;8.43;;;;;;;;;;5081514;28;20481;-85
2022/03/13 05:26:44;;;;;;;17.05;8.32;;;;;;;;;;5098285;28;20042;-84
2022/03/13 05:29:09;;;;;;;19.77;8.43;;;;;;;;;;5081674;28;20038;-83
2022/03/13 05:31:35;;;;;;;19.45;8.82;;;;;;;;;;5081547;28;20031;-84
2022/03/13 05:34:00;;;;;;;22.33;8.77;;;;;;;;;;5077861;28;20018;-83
2022/03/13 05:36:26;;;;;;;26.92;9.65;;;;;;;;;;5066039;28;20066;-83
2022/03/13 05:38:53;;;;;;;21.40;9.15;;;;;;;;;;5116241;28;20020;-84
2022/03/13 05:41:23;;;;;;;19.88;9.70;;;;;;;;;;5098009;28;20100;-83
2022/03/13 05:43:49;;;;;;;20.70;9.32;;;;;;;;;;5081710;28;20041;-83
2022/03/13 05:46:15;;;;;;;23.48;10.48;;;;;;;;;;5081112;28;20106;-83
2022/03/13 05:48:42;;;;;;;22.00;10.07;;;;;;;;;;5081391;28;20031;-83
2022/03/13 05:51:08;;;;;;;24.95;11.07;;;;;;;;;;5083020;28;20016;-83
2022/03/13 05:53:33;;;;;;;21.85;9.57;;;;;;;;;;5098436;28;20023;-83
2022/03/13 05:55:59;;;;;;;22.65;10.70;;;;;;;;;;5084232;28;20035;-83
2022/03/13 05:58:24;;;;;;;19.63;10.35;;;;;;;;;;5103054;28;20058;-83
2022/03/13 06:01:01;;;;;;;25.02;10.73;;;;;;;;;;5080605;28;20023;-85
2022/03/13 06:03:27;;;;;;;23.52;10.68;;;;;;;;;;5067576;28;20028;-84
2022/03/13 06:05:55;;;;;;;25.13;10.95;;;;;;;;;;5097472;28;20102;-83
2022/03/13 06:08:21;;;;;;;31.40;12.20;;;;;;;;;;5097643;28;20023;-83
2022/03/13 06:10:46;;;;;;;27.45;12.27;;;;;;;;;;5064354;28;20458;-84
2022/03/13 06:13:12;;;;;;;30.10;12.07;;;;;;;;;;5063654;28;20059;-84
2022/03/13 06:15:38;;;;;;;28.98;10.50;;;;;;;;;;5064525;28;20081;-84
2022/03/13 06:18:04;;;;;;;21.23;9.88;;;;;;;;;;5114126;28;20044;-84
2022/03/13 06:20:29;;;;;;;23.92;11.20;;;;;;;;;;5097589;28;20483;-84
2022/03/13 06:22:55;;;;;;;21.08;10.35;;;;;;;;;;5080734;28;20031;-83
2022/03/13 06:25:20;;;;;;;23.90;10.65;;;;;;;;;;5063944;28;20081;-84
2022/03/13 06:27:46;;;;;;;30.35;11.50;;;;;;;;;;5095765;28;20369;-84
2022/03/13 06:30:14;;;;;;;25.88;10.93;;;;;;;;;;5063515;28;20445;-84
2022/03/13 06:32:50;;;;;;;24.20;12.05;;;;;;;;;;5080584;28;20027;-84
2022/03/13 06:35:17;;;;;;;26.92;12.00;;;;;;;;;;5080347;28;20453;-84
2022/03/13 06:37:43;;;;;;;29.40;12.43;;;;;;;;;;5080014;28;20431;-84
2022/03/13 06:40:09;;;;;;;26.77;13.23;;;;;;;;;;5092854;28;20037;-84
2022/03/13 06:42:55;;;;;;;30.90;13.80;;;;;;;;;;5133199;28;20086;-83
2022/03/13 06:45:20;;;;;;;28.50;12.82;;;;;;;;;;5083540;28;20368;-84
2022/03/13 06:47:47;;;;;;;38.42;13.95;;;;;;;;;;5080445;28;20027;-84
2022/03/13 06:50:17;;;;;;;29.50;12.40;;;;;;;;;;5080375;28;20019;-84
2022/03/13 06:52:44;;;;;;;26.95;11.57;;;;;;;;;;5080971;28;20145;-84
2022/03/13 06:55:13;;;;;;;27.92;11.60;;;;;;;;;;5097111;28;20042;-84
2022/03/13 06:57:42;;;;;;;30.52;13.48;;;;;;;;;;5097608;28;20054;-84
2022/03/13 07:00:08;;;;;;;30.75;13.68;;;;;;;;;;5084031;28;20032;-84
2022/03/13 07:02:33;;;;;;;31.80;14.40;;;;;;;;;;5090788;28;20038;-84
2022/03/13 07:04:59;;;;;;;34.85;13.82;;;;;;;;;;5079982;28;20031;-84
2022/03/13 07:07:24;;;;;;;29.38;13.48;;;;;;;;;;5096800;28;20067;-84
2022/03/13 07:09:52;;;;;;;30.88;14.38;;;;;;;;;;5063113;28;20063;-84
2022/03/13 07:12:18;;;;;;;31.90;13.85;;;;;;;;;;5080252;28;20035;-84
2022/03/13 07:14:46;;;;;;;30.48;13.85;;;;;;;;;;5096494;28;20131;-84
2022/03/13 07:17:14;;;;;;;32.90;14.73;;;;;;;;;;5097904;28;20048;-84
2022/03/13 07:19:43;;;;;;;31.83;15.38;;;;;;;;;;5079768;28;20028;-84
2022/03/13 07:22:13;;;;;;;28.27;13.13;;;;;;;;;;5084676;28;20028;-84
2022/03/13 07:24:39;;;;;;;34.47;14.40;;;;;;;;;;5084191;28;20122;-84
2022/03/13 07:27:04;;;;;;;36.28;14.75;;;;;;;;;;5079537;28;20028;-84
2022/03/13 07:29:30;;;;;;;32.88;13.80;;;;;;;;;;5096338;28;20475;-84
2022/03/13 07:31:56;;;;;;;26.10;12.25;;;;;;;;;;5079656;28;20118;-84
2022/03/13 07:34:27;;;;;;;30.90;13.02;;;;;;;;;;5079823;28;20447;-85
2022/03/13 07:36:53;;;;;;;32.10;12.95;;;;;;;;;;5079809;28;20035;-84
2022/03/13 07:39:21;;;;;;;35.05;14.70;;;;;;;;;;5099513;28;20024;-84
2022/03/13 07:41:48;;;;;;;37.03;15.20;;;;;;;;;;5100584;28;20368;-83
2022/03/13 07:44:14;;;;;;;37.53;15.55;;;;;;;;;;5088969;28;20003;-84
2022/03/13 07:46:39;;;;;;;33.10;14.68;;;;;;;;;;5076686;28;20034;-82
2022/03/13 07:49:05;;;;;;;40.72;16.63;;;;;;;;;;5083527;28;20074;-84
2022/03/13 07:51:32;;;;;;;43.15;20.02;;;;;;;;;;5100184;28;20024;-82
2022/03/13 07:53:59;;;;;;;41.90;20.35;;;;;;;;;;5066995;28;20023;-85
2022/03/13 07:56:24;;;;;;;41.58;18.00;;;;;;;;;;5066621;28;20032;-82
2022/03/13 07:58:52;;;;;;;45.40;18.10;;;;;;;;;;5083179;28;20101;-83
2022/03/13 08:01:17;;;;;;;44.40;16.92;;;;;;;;;;5100014;28;20058;-85
2022/03/13 08:03:45;;;;;;;44.50;17.05;;;;;;;;;;5083694;28;20024;-83
2022/03/13 08:06:11;;;;;;;43.10;16.92;;;;;;;;;;5085435;28;20019;-84
2022/03/13 08:08:36;;;;;;;47.50;17.75;;;;;;;;;;5087352;28;20125;-82
2022/03/13 08:11:02;;;;;;;46.45;18.27;;;;;;;;;;5100253;28;20019;-82
2022/03/13 08:13:28;;;;;;;43.70;17.20;;;;;;;;;;5082735;28;20130;-84
2022/03/13 08:15:53;;;;;;;37.38;16.50;;;;;;;;;;5083212;28;20036;-82
2022/03/13 08:18:19;;;;;;;45.63;18.38;;;;;;;;;;5099450;28;20027;-84
2022/03/13 08:20:44;;;;;;;57.67;20.55;;;;;;;;;;5082704;28;20081;-84
2022/03/13 08:23:10;;;;;;;60.28;19.55;;;;;;;;;;5066305;28;20045;-81
2022/03/13 08:25:36;;;;;;;42.17;18.33;;;;;;;;;;5082508;28;20034;-81
2022/03/13 08:28:02;;;;;;;48.67;20.52;;;;;;;;;;5073661;28;20035;-81
2022/03/13 08:30:28;;;;;;;46.97;20.48;;;;;;;;;;5084857;28;20330;-83
2022/03/13 08:32:54;;;;;;;37.05;14.68;;;;;;;;;;5066492;28;20019;-84
2022/03/13 08:35:20;;;;;;;41.08;17.05;;;;;;;;;;5099571;28;20057;-82
2022/03/13 08:37:48;;;;;;;48.45;21.25;;;;;;;;;;5083060;28;20122;-83
2022/03/13 08:40:16;;;;;;;48.05;18.77;;;;;;;;;;5099403;28;20028;-80
2022/03/13 08:43:32;;;;;;;50.13;17.90;;;;;;;;;;5117887;28;20041;-82
2022/03/13 08:45:59;;;;;;;39.80;16.65;;;;;;;;;;5100268;28;20138;-84
2022/03/13 08:48:28;;;;;;;39.90;16.90;;;;;;;;;;5099481;28;20369;-84
2022/03/13 08:50:54;;;;;;;43.67;16.67;;;;;;;;;;5095083;28;20023;-83
2022/03/13 08:53:20;;;;;;;43.17;17.38;;;;;;;;;;5083307;28;20377;-85
2022/03/13 08:55:48;;;;;;;39.10;15.43;;;;;;;;;;5082875;28;20059;-85
2022/03/13 08:58:14;;;;;;;40.45;16.83;;;;;;;;;;5099420;28;20043;-83
2022/03/13 09:00:41;;;;;;;41.63;16.15;;;;;;;;;;5099622;28;20016;-83
2022/03/13 09:03:07;;;;;;;45.20;16.85;;;;;;;;;;5066144;28;20030;-83
2022/03/13 09:05:33;;;;;;;45.03;15.40;;;;;;;;;;5082219;28;20429;-83
2022/03/13 09:07:58;;;;;;;47.42;19.27;;;;;;;;;;5081749;28;20055;-83
2022/03/13 09:10:24;;;;;;;52.83;24.95;;;;;;;;;;5081821;28;20035;-84
2022/03/13 09:12:49;;;;;;;77.50;35.17;;;;;;;;;;5074359;28;20043;-85
2022/03/13 09:15:15;;;;;;;64.10;25.08;;;;;;;;;;5061757;28;20042;-85
2022/03/13 09:17:41;;;;;;;64.57;26.48;;;;;;;;;;5061862;28;20024;-85
2022/03/13 09:20:07;;;;;;;44.60;18.25;;;;;;;;;;5096375;28;20028;-83
2022/03/13 09:22:35;;;;;;;48.55;19.98;;;;;;;;;;5078812;28;20049;-82
2022/03/13 09:25:01;;;;;;;55.28;18.77;;;;;;;;;;5079272;28;20050;-83
2022/03/13 09:27:27;;;;;;;52.70;19.88;;;;;;;;;;5061676;28;20027;-83
2022/03/13 09:29:54;;;;;;;40.10;17.67;;;;;;;;;;5077987;28;20499;-83
2022/03/13 09:32:21;;;;;;;94.20;35.53;;;;;;;;;;5061354;28;20525;-83
2022/03/13 09:34:47;;;;;;;93.03;30.38;;;;;;;;;;5058014;28;20043;-84
2022/03/13 09:37:13;;;;;;;66.15;24.67;;;;;;;;;;5095977;28;20024;-84
2022/03/13 09:39:39;;;;;;;48.55;18.85;;;;;;;;;;5078166;28;20035;-83
2022/03/13 09:42:39;;;;;;;51.30;22.55;;;;;;;;;;5062313;28;20085;-83
2022/03/13 09:45:05;;;;;;;66.88;25.20;;;;;;;;;;5055366;28;20016;-83
2022/03/13 09:47:31;;;;;;;43.50;16.95;;;;;;;;;;5076645;28;20115;-84
2022/03/13 09:49:57;;;;;;;48.17;21.02;;;;;;;;;;5060857;28;20120;-83
2022/03/13 09:52:22;;;;;;;96.95;43.70;;;;;;;;;;5060839;28;20538;-84
2022/03/13 09:54:48;;;;;;;54.30;23.20;;;;;;;;;;5061817;28;20032;-85
2022/03/13 09:57:14;;;;;;;61.60;20.77;;;;;;;;;;5070709;28;20043;-84
2022/03/13 09:59:40;;;;;;;45.70;17.92;;;;;;;;;;5095954;28;20032;-85
2022/03/13 10:02:06;;;;;;;52.65;19.52;;;;;;;;;;5060324;28;20445;-84
2022/03/13 10:04:32;;;;;;;45.10;17.00;;;;;;;;;;5077281;28;20501;-83
2022/03/13 10:07:02;;;;;;;40.72;17.45;;;;;;;;;;5060442;28;20035;-83
2022/03/13 10:09:28;;;;;;;41.15;15.07;;;;;;;;;;5060663;28;20036;-84
2022/03/13 10:12:03;;;;;;;38.85;14.68;;;;;;;;;;5095500;28;20158;-84
2022/03/13 10:14:47;;;;;;;48.53;18.38;;;;;;;;;;5108970;28;20044;-83
2022/03/13 10:17:39;;;;;;;51.90;19.23;;;;;;;;;;5085123;28;20038;-84
2022/03/13 10:20:18;;;;;;;41.75;16.55;;;;;;;;;;5096163;28;20050;-83
2022/03/13 10:22:46;;;;;;;48.67;18.58;;;;;;;;;;5097264;28;20027;-84
2022/03/13 10:25:13;;;;;;;44.30;17.08;;;;;;;;;;5115405;28;20364;-85
2022/03/13 10:27:40;;;;;;;46.83;18.80;;;;;;;;;;5097511;28;20440;-81
2022/03/13 10:30:09;;;;;;;46.75;19.08;;;;;;;;;;5098023;28;20031;-82
2022/03/13 10:35:22;;;;;;;52.03;20.35;;;;;;;;;;5087501;28;20034;-83
2022/03/13 10:37:48;;;;;;;76.97;34.35;;;;;;;;;;5084757;28;20027;-83
2022/03/13 10:40:18;;;;;;;74.00;36.63;;;;;;;;;;5077538;28;20060;-81
2022/03/13 10:42:43;;;;;;;57.17;22.98;;;;;;;;;;5102059;28;20053;-82
2022/03/13 10:45:11;;;;;;;44.83;19.05;;;;;;;;;;5115952;28;20035;-83
2022/03/13 10:47:37;;;;;;;52.33;19.98;;;;;;;;;;5096815;28;20031;-82
2022/03/13 10:50:03;;;;;;;44.63;16.73;;;;;;;;;;5097190;28;20031;-82
2022/03/13 10:52:30;;;;;;;43.50;17.80;;;;;;;;;;5097415;28;20479;-82
2022/03/13 10:54:59;;;;;;;41.70;17.38;;;;;;;;;;5102103;28;20114;-82
2022/03/13 10:57:25;;;;;;;39.30;17.77;;;;;;;;;;5097224;28;20451;-82
2022/03/13 11:00:12;;;;;;;42.90;18.75;;;;;;;;;;5096950;28;20341;-81
2022/03/13 11:02:38;;;;;;;36.90;15.35;;;;;;;;;;5126018;28;20116;-81
2022/03/13 11:05:05;;;;;;;42.85;17.02;;;;;;;;;;5082911;28;20098;-82
2022/03/13 11:07:31;;;;;;;43.78;18.48;;;;;;;;;;5096881;28;20410;-82
2022/03/13 11:09:56;;;;;;;47.38;17.25;;;;;;;;;;5097081;28;20039;-81
2022/03/13 11:12:23;;;;;;;48.95;19.17;;;;;;;;;;5080515;28;20483;-82
2022/03/13 11:14:49;;;;;;;45.03;18.38;;;;;;;;;;5104435;28;20073;-81
2022/03/13 11:17:17;;;;;;;42.35;16.33;;;;;;;;;;5121105;28;20035;-83
2022/03/13 11:19:43;;;;;;;45.72;16.73;;;;;;;;;;5086905;28;20104;-83
2022/03/13 11:22:08;;;;;;;49.03;18.17;;;;;;;;;;5124334;28;20035;-83
2022/03/13 11:24:36;;;;;;;42.30;17.25;;;;;;;;;;5117700;28;20031;-83
2022/03/13 11:27:05;;;;;;;38.03;15.50;;;;;;;;;;5087027;28;20027;-83
2022/03/13 11:29:52;;;;;;;44.47;17.02;;;;;;;;;;5103164;28;20030;-83
2022/03/13 11:32:27;;;;;;;53.17;20.10;;;;;;;;;;5121751;28;20076;-82
2022/03/13 11:35:25;;;;;;;41.38;17.15;;;;;;;;;;5103316;28;20027;-83
2022/03/13 11:37:53;;;;;;;35.42;14.52;;;;;;;;;;5084440;28;20047;-82
2022/03/13 11:40:39;;;;;;;35.25;14.43;;;;;;;;;;5086321;28;20031;-82
2022/03/13 11:43:15;;;;;;;42.13;16.33;;;;;;;;;;5090494;28;20058;-83
2022/03/13 11:45:41;;;;;;;27.42;12.23;;;;;;;;;;5114254;28;20028;-83
2022/03/13 11:48:19;;;;;;;30.55;13.45;;;;;;;;;;5103253;28;20457;-83
2022/03/13 11:50:47;;;;;;;31.25;12.05;;;;;;;;;;5121335;28;20023;-83
2022/03/13 11:53:23;;;;;;;29.67;11.63;;;;;;;;;;5121136;28;20035;-83
2022/03/13 11:55:57;;;;;;;30.73;12.68;;;;;;;;;;5121065;28;20027;-83
2022/03/13 11:58:48;;;;;;;27.23;10.95;;;;;;;;;;5121203;28;20372;-83
2022/03/13 12:01:23;;;;;;;33.17;12.43;;;;;;;;;;5086077;28;20023;-83
2022/03/13 12:04:01;;;;;;;20.35;10.05;;;;;;;;;;5087350;28;20027;-83
2022/03/13 12:06:42;;;;;;;27.55;9.93;;;;;;;;;;5124517;28;20031;-83
2022/03/13 12:09:14;;;;;;;20.15;8.52;;;;;;;;;;5106698;28;20127;-83
2022/03/13 12:11:46;;;;;;;32.47;13.30;;;;;;;;;;5086273;28;20451;-82
2022/03/13 12:14:15;;;;;;;25.02;10.57;;;;;;;;;;5102584;28;20081;-82
2022/03/13 12:16:42;;;;;;;18.70;8.77;;;;;;;;;;5070174;28;20448;-82
2022/03/13 12:19:08;;;;;;;36.60;13.95;;;;;;;;;;5102736;28;20364;-83
2022/03/13 12:21:34;;;;;;;32.20;14.10;;;;;;;;;;5102620;28;20118;-83
2022/03/13 12:24:13;;;;;;;39.08;14.45;;;;;;;;;;5101950;28;20085;-83
2022/03/13 12:26:39;;;;;;;21.60;9.82;;;;;;;;;;5117428;28;20043;-82
2022/03/13 12:29:05;;;;;;;21.90;10.35;;;;;;;;;;5121914;28;20043;-83
2022/03/13 12:31:38;;;;;;;18.92;8.55;;;;;;;;;;5083122;28;20058;-83
2022/03/13 12:34:04;;;;;;;18.77;9.70;;;;;;;;;;5083065;28;20035;-83
2022/03/13 12:36:34;;;;;;;22.45;10.75;;;;;;;;;;5099171;28;20040;-83
2022/03/13 12:39:00;;;;;;;19.38;8.85;;;;;;;;;;5082460;28;20130;-83
2022/03/13 12:41:26;;;;;;;23.90;9.73;;;;;;;;;;5082464;28;20436;-82
2022/03/13 12:43:52;;;;;;;27.67;10.93;;;;;;;;;;5099042;28;20027;-81
2022/03/13 12:46:22;;;;;;;28.30;10.23;;;;;;;;;;5082256;28;20518;-82
2022/03/13 12:48:53;;;;;;;19.45;7.57;;;;;;;;;;5107239;28;20028;-82
2022/03/13 12:51:41;;;;;;;22.27;8.57;;;;;;;;;;5134345;28;20033;-83
2022/03/13 12:54:08;;;;;;;27.80;10.50;;;;;;;;;;5083256;28;20020;-82
2022/03/13 12:56:48;;;;;;;27.23;10.30;;;;;;;;;;5098844;28;20116;-82
2022/03/13 12:59:29;;;;;;;22.58;9.23;;;;;;;;;;5116752;28;20027;-83
2022/03/13 13:02:14;;;;;;;21.45;8.63;;;;;;;;;;5108070;28;20365;-82
2022/03/13 13:04:49;;;;;;;20.75;9.15;;;;;;;;;;5105391;28;20031;-83
2022/03/13 13:07:18;;;;;;;22.08;9.25;;;;;;;;;;5094833;28;20030;-81
2022/03/13 13:09:48;;;;;;;26.73;9.82;;;;;;;;;;5084332;28;20067;-82
2022/03/13 13:12:20;;;;;;;19.07;7.60;;;;;;;;;;5125542;28;20471;-82
2022/03/13 13:14:47;;;;;;;20.25;8.23;;;;;;;;;;5088899;28;20043;-83
2022/03/13 13:17:15;;;;;;;33.75;11.45;;;;;;;;;;5098833;28;20364;-83
2022/03/13 13:19:42;;;;;;;20.23;8.60;;;;;;;;;;5081829;28;20038;-84
2022/03/13 13:22:07;;;;;;;21.83;8.00;;;;;;;;;;5098445;28;20084;-82
2022/03/13 13:24:36;;;;;;;23.60;9.75;;;;;;;;;;5081711;28;20440;-83
2022/03/13 13:27:06;;;;;;;29.63;11.73;;;;;;;;;;5081927;28;20360;-84
2022/03/13 13:29:36;;;;;;;33.72;8.88;;;;;;;;;;5098769;28;20058;-82
2022/03/13 13:32:21;;;;;;;21.40;8.13;;;;;;;;;;5081517;28;20063;-82
2022/03/13 13:35:07;;;;;;;23.73;8.93;;;;;;;;;;5105159;28;20345;-82
2022/03/13 13:37:32;;;;;;;24.02;9.95;;;;;;;;;;5082010;28;20043;-82
2022/03/13 13:40:09;;;;;;;26.27;9.98;;;;;;;;;;5064999;28;20036;-82
2022/03/13 13:42:39;;;;;;;29.60;10.02;;;;;;;;;;5065288;28;20047;-82
2022/03/13 13:45:26;;;;;;;32.65;12.32;;;;;;;;;;5066117;28;20069;-82
2022/03/13 13:47:52;;;;;;;34.22;12.35;;;;;;;;;;5099077;28;20027;-82
2022/03/13 13:50:18;;;;;;;25.35;10.52;;;;;;;;;;5080679;28;20435;-82
2022/03/13 13:52:44;;;;;;;29.83;10.27;;;;;;;;;;5097771;28;20058;-81
2022/03/13 13:55:22;;;;;;;24.27;9.98;;;;;;;;;;5081107;28;20109;-83
2022/03/13 13:58:08;;;;;;;21.17;8.60;;;;;;;;;;5087672;28;20471;-82
2022/03/13 14:00:34;;;;;;;23.90;9.65;;;;;;;;;;5083499;28;20060;-82
2022/03/13 14:02:59;;;;;;;23.85;9.48;;;;;;;;;;5115789;28;20484;-82
2022/03/13 14:05:25;;;;;;;21.05;9.10;;;;;;;;;;5097616;28;20457;-83
2022/03/13 14:07:50;;;;;;;17.05;7.68;;;;;;;;;;5097578;28;20338;-83
2022/03/13 14:10:16;;;;;;;34.15;12.00;;;;;;;;;;5097265;28;20044;-82
2022/03/13 14:12:42;;;;;;;30.50;12.38;;;;;;;;;;5080677;28;20035;-82
2022/03/13 14:15:08;;;;;;;102.75;49.28;;;;;;;;;;5080837;28;20047;-82
2022/03/13 14:17:34;;;;;;;85.97;36.42;;;;;;;;;;5084008;28;20035;-83
2022/03/13 14:20:00;;;;;;;41.80;17.52;;;;;;;;;;5110125;28;20042;-83
2022/03/13 14:22:25;;;;;;;28.52;13.00;;;;;;;;;;5080951;28;20031;-82
2022/03/13 14:24:51;;;;;;;31.58;12.27;;;;;;;;;;5096730;28;20035;-82
2022/03/13 14:27:16;;;;;;;75.90;34.03;;;;;;;;;;5080314;28;20115;-83
2022/03/13 14:29:42;;;;;;;49.22;20.67;;;;;;;;;;5080278;28;20059;-83
2022/03/13 14:32:10;;;;;;;40.05;16.25;;;;;;;;;;5063706;28;20040;-85
2022/03/13 14:34:35;;;;;;;49.92;22.15;;;;;;;;;;5080635;28;20445;-83
2022/03/13 14:37:01;;;;;;;31.45;14.52;;;;;;;;;;5063963;28;20034;-83